sensor_id;sensor_type;location;lat;lon;timestamp;temperature;humidity
9265;DHT22;4669;49.594;10.958;2023-06-14T04:27:00;17.50;74.30
9265;DHT22;4669;49.594;10.958;2023-06-14T04:32:04;17.50;74.20
9265;DHT22;4669;49.594;10.958;2023-06-14T04:37:12;17.50;74.50
9265;DHT22;4669;49.594;10.958;2023-06-14T04:42:17;17.50;74.70
9265;DHT22;4669;49.594;10.958;2023-06-14T04:47:22;17.60;74.60
9265;DHT22;4669;49.594;10.958;2023-06-14T04:52:25;17.60;74.80
9265;DHT22;4669;49.594;10.958;2023-06-14T04:57:32;17.50;75.40
9265;DHT22;4669;49.594;10.958;2023-06-14T05:02:36;17.60;75.30
9265;DHT22;4669;49.594;10.958;2023-06-14T05:07:39;17.60;75.30
9265;DHT22;4669;49.594;10.958;2023-06-14T05:12:43;17.60;76.40
9265;DHT22;4669;49.594;10.958;2023-06-14T05:17:46;17.70;76.20
9265;DHT22;4669;49.594;10.958;2023-06-14T05:22:55;17.80;77.20
9265;DHT22;4669;49.594;10.958;2023-06-14T05:27:58;17.90;76.40
9265;DHT22;4669;49.594;10.958;2023-06-14T05:33:00;17.90;76.00
9265;DHT22;4669;49.594;10.958;2023-06-14T05:38:02;18.10;76.60
9265;DHT22;4669;49.594;10.958;2023-06-14T05:43:05;18.10;76.50
9265;DHT22;4669;49.594;10.958;2023-06-14T05:48:07;18.10;76.90
9265;DHT22;4669;49.594;10.958;2023-06-14T05:53:10;18.20;76.50
9265;DHT22;4669;49.594;10.958;2023-06-14T05:58:13;18.20;76.90
9265;DHT22;4669;49.594;10.958;2023-06-14T06:03:15;18.20;76.80
9265;DHT22;4669;49.594;10.958;2023-06-14T06:08:17;18.20;77.90
9265;DHT22;4669;49.594;10.958;2023-06-14T06:13:20;18.30;77.40
9265;DHT22;4669;49.594;10.958;2023-06-14T06:18:22;18.40;77.50
9265;DHT22;4669;49.594;10.958;2023-06-14T06:23:24;18.50;77.80
9265;DHT22;4669;49.594;10.958;2023-06-14T06:28:27;18.60;77.50
9265;DHT22;4669;49.594;10.958;2023-06-14T06:33:29;18.80;77.20
9265;DHT22;4669;49.594;10.958;2023-06-14T06:38:31;18.80;77.60
9265;DHT22;4669;49.594;10.958;2023-06-14T06:43:34;18.80;77.80
9265;DHT22;4669;49.594;10.958;2023-06-14T06:48:36;18.90;77.60
9265;DHT22;4669;49.594;10.958;2023-06-14T06:53:38;19.00;77.90
9265;DHT22;4669;49.594;10.958;2023-06-14T06:58:42;19.00;77.80
9265;DHT22;4669;49.594;10.958;2023-06-14T07:03:43;19.10;78.00
9265;DHT22;4669;49.594;10.958;2023-06-14T07:08:45;19.30;77.60
9265;DHT22;4669;49.594;10.958;2023-06-14T07:13:50;19.30;77.00
9265;DHT22;4669;49.594;10.958;2023-06-14T07:18:52;19.30;75.90
9265;DHT22;4669;49.594;10.958;2023-06-14T07:23:55;19.30;75.60
9265;DHT22;4669;49.594;10.958;2023-06-14T07:28:58;19.30;74.90
9265;DHT22;4669;49.594;10.958;2023-06-14T07:34:00;19.30;74.90
9265;DHT22;4669;49.594;10.958;2023-06-14T07:39:02;19.40;76.00
9265;DHT22;4669;49.594;10.958;2023-06-14T07:44:07;19.50;75.40
9265;DHT22;4669;49.594;10.958;2023-06-14T07:49:09;19.60;75.30
9265;DHT22;4669;49.594;10.958;2023-06-14T07:54:11;19.70;76.10
9265;DHT22;4669;49.594;10.958;2023-06-14T07:59:14;19.70;75.70
9265;DHT22;4669;49.594;10.958;2023-06-14T08:04:16;19.90;74.90
9265;DHT22;4669;49.594;10.958;2023-06-14T08:09:19;20.00;73.80
9265;DHT22;4669;49.594;10.958;2023-06-14T08:14:22;20.10;74.30
9265;DHT22;4669;49.594;10.958;2023-06-14T08:19:24;20.10;73.30
9265;DHT22;4669;49.594;10.958;2023-06-14T08:24:26;20.10;73.30
9265;DHT22;4669;49.594;10.958;2023-06-14T08:29:29;20.20;73.20
9265;DHT22;4669;49.594;10.958;2023-06-14T08:34:31;20.30;72.20
9265;DHT22;4669;49.594;10.958;2023-06-14T08:39:33;20.30;73.00
9265;DHT22;4669;49.594;10.958;2023-06-14T08:44:37;20.40;72.00
9265;DHT22;4669;49.594;10.958;2023-06-14T08:49:40;20.50;71.30
9265;DHT22;4669;49.594;10.958;2023-06-14T08:54:48;20.70;70.40
9265;DHT22;4669;49.594;10.958;2023-06-14T08:59:52;20.70;70.40
9265;DHT22;4669;49.594;10.958;2023-06-14T09:04:55;20.70;69.70
9265;DHT22;4669;49.594;10.958;2023-06-14T09:10:07;20.70;68.70
9265;DHT22;4669;49.594;10.958;2023-06-14T09:15:11;20.80;69.50
9265;DHT22;4669;49.594;10.958;2023-06-14T09:20:14;21.00;70.60
9265;DHT22;4669;49.594;10.958;2023-06-14T09:25:18;21.30;68.00
9265;DHT22;4669;49.594;10.958;2023-06-14T09:30:22;21.40;69.60
9265;DHT22;4669;49.594;10.958;2023-06-14T09:35:24;21.70;67.40
9265;DHT22;4669;49.594;10.958;2023-06-14T09:40:26;21.80;67.30
9265;DHT22;4669;49.594;10.958;2023-06-14T09:45:30;21.90;67.80
9265;DHT22;4669;49.594;10.958;2023-06-14T09:50:32;21.80;66.40
9265;DHT22;4669;49.594;10.958;2023-06-14T09:55:35;21.90;67.00
9265;DHT22;4669;49.594;10.958;2023-06-14T10:00:39;22.10;66.20
9265;DHT22;4669;49.594;10.958;2023-06-14T10:05:45;22.30;66.40
9265;DHT22;4669;49.594;10.958;2023-06-14T10:10:47;22.50;64.20
9265;DHT22;4669;49.594;10.958;2023-06-14T10:15:58;22.70;64.20
9265;DHT22;4669;49.594;10.958;2023-06-14T10:21:13;22.80;64.30
9265;DHT22;4669;49.594;10.958;2023-06-14T10:26:19;22.90;62.80
9265;DHT22;4669;49.594;10.958;2023-06-14T10:31:40;23.00;63.80
9265;DHT22;4669;49.594;10.958;2023-06-14T10:36:42;23.20;63.00
9265;DHT22;4669;49.594;10.958;2023-06-14T10:41:52;23.20;62.20
9265;DHT22;4669;49.594;10.958;2023-06-14T10:46:58;23.10;62.30
9265;DHT22;4669;49.594;10.958;2023-06-14T10:52:00;23.10;62.10
9265;DHT22;4669;49.594;10.958;2023-06-14T10:57:07;23.00;61.40
9265;DHT22;4669;49.594;10.958;2023-06-14T11:02:27;23.00;61.30
9265;DHT22;4669;49.594;10.958;2023-06-14T11:07:46;23.10;61.20
9265;DHT22;4669;49.594;10.958;2023-06-14T11:12:50;23.20;60.60
9265;DHT22;4669;49.594;10.958;2023-06-14T11:17:55;23.10;61.00
9265;DHT22;4669;49.594;10.958;2023-06-14T11:22:58;23.10;60.90
9265;DHT22;4669;49.594;10.958;2023-06-14T11:28:00;23.20;61.40
9265;DHT22;4669;49.594;10.958;2023-06-14T11:33:03;23.30;60.70
9265;DHT22;4669;49.594;10.958;2023-06-14T11:38:05;23.30;59.20
9265;DHT22;4669;49.594;10.958;2023-06-14T11:43:07;23.40;60.50
9265;DHT22;4669;49.594;10.958;2023-06-14T11:48:10;23.70;64.70
9265;DHT22;4669;49.594;10.958;2023-06-14T11:53:12;23.90;59.90
9265;DHT22;4669;49.594;10.958;2023-06-14T11:58:18;23.70;57.70
9265;DHT22;4669;49.594;10.958;2023-06-14T12:03:24;23.60;58.30
9265;DHT22;4669;49.594;10.958;2023-06-14T12:08:33;23.60;58.90
9265;DHT22;4669;49.594;10.958;2023-06-14T12:13:39;23.70;59.40
9265;DHT22;4669;49.594;10.958;2023-06-14T12:18:43;23.90;59.90
9265;DHT22;4669;49.594;10.958;2023-06-14T12:23:46;24.10;59.40
9265;DHT22;4669;49.594;10.958;2023-06-14T12:28:48;24.10;58.00
9265;DHT22;4669;49.594;10.958;2023-06-14T12:33:52;24.10;58.10
9265;DHT22;4669;49.594;10.958;2023-06-14T12:38:53;24.10;59.50
9265;DHT22;4669;49.594;10.958;2023-06-14T12:43:55;24.30;59.50
9265;DHT22;4669;49.594;10.958;2023-06-14T12:48:59;24.40;59.80
9265;DHT22;4669;49.594;10.958;2023-06-14T12:54:01;24.40;58.10
9265;DHT22;4669;49.594;10.958;2023-06-14T12:59:03;24.60;58.00
9265;DHT22;4669;49.594;10.958;2023-06-14T13:04:07;24.50;56.40
9265;DHT22;4669;49.594;10.958;2023-06-14T13:09:09;24.40;58.00
9265;DHT22;4669;49.594;10.958;2023-06-14T13:14:11;24.80;58.40
9265;DHT22;4669;49.594;10.958;2023-06-14T13:19:14;24.90;56.50
9265;DHT22;4669;49.594;10.958;2023-06-14T13:24:16;24.70;56.00
9265;DHT22;4669;49.594;10.958;2023-06-14T13:29:18;24.60;55.80
9265;DHT22;4669;49.594;10.958;2023-06-14T13:34:21;24.60;56.80
9265;DHT22;4669;49.594;10.958;2023-06-14T13:39:23;24.40;56.10
9265;DHT22;4669;49.594;10.958;2023-06-14T13:44:25;24.30;58.00
9265;DHT22;4669;49.594;10.958;2023-06-14T13:49:28;24.80;59.40
9265;DHT22;4669;49.594;10.958;2023-06-14T13:54:31;25.30;55.70
9265;DHT22;4669;49.594;10.958;2023-06-14T13:59:33;25.60;56.30
9265;DHT22;4669;49.594;10.958;2023-06-14T14:04:36;25.40;56.20
9265;DHT22;4669;49.594;10.958;2023-06-14T14:09:38;25.30;54.90
9265;DHT22;4669;49.594;10.958;2023-06-14T14:14:41;25.60;55.70
9265;DHT22;4669;49.594;10.958;2023-06-14T14:19:44;25.80;53.80
9265;DHT22;4669;49.594;10.958;2023-06-14T14:24:46;25.50;56.90
9265;DHT22;4669;49.594;10.958;2023-06-14T14:29:48;25.40;55.50
9265;DHT22;4669;49.594;10.958;2023-06-14T14:34:51;25.10;55.40
9265;DHT22;4669;49.594;10.958;2023-06-14T14:39:53;24.90;55.80
9265;DHT22;4669;49.594;10.958;2023-06-14T14:44:55;24.60;56.00
9265;DHT22;4669;49.594;10.958;2023-06-14T14:49:58;24.40;56.50
9265;DHT22;4669;49.594;10.958;2023-06-14T14:55:00;24.40;57.80
9265;DHT22;4669;49.594;10.958;2023-06-14T15:00:02;24.50;56.50
9265;DHT22;4669;49.594;10.958;2023-06-14T15:05:07;24.50;55.30
9265;DHT22;4669;49.594;10.958;2023-06-14T15:10:09;24.70;54.90
9265;DHT22;4669;49.594;10.958;2023-06-14T15:15:11;24.80;55.10
9265;DHT22;4669;49.594;10.958;2023-06-14T15:20:15;26.00;55.00
9265;DHT22;4669;49.594;10.958;2023-06-14T15:25:16;27.50;54.20
9265;DHT22;4669;49.594;10.958;2023-06-14T15:30:18;28.20;52.20
9265;DHT22;4669;49.594;10.958;2023-06-14T15:35:22;28.40;52.00
9265;DHT22;4669;49.594;10.958;2023-06-14T15:40:24;31.20;52.10
9265;DHT22;4669;49.594;10.958;2023-06-14T15:45:26;31.90;50.10
9265;DHT22;4669;49.594;10.958;2023-06-14T15:50:29;33.20;49.60
9265;DHT22;4669;49.594;10.958;2023-06-14T15:55:32;31.90;48.90
9265;DHT22;4669;49.594;10.958;2023-06-14T16:00:34;29.30;51.10
9265;DHT22;4669;49.594;10.958;2023-06-14T16:05:37;28.30;50.60
9265;DHT22;4669;49.594;10.958;2023-06-14T16:10:39;27.60;52.70
9265;DHT22;4669;49.594;10.958;2023-06-14T16:15:41;27.10;52.40
9265;DHT22;4669;49.594;10.958;2023-06-14T16:20:44;26.80;51.90
9265;DHT22;4669;49.594;10.958;2023-06-14T16:25:46;26.50;52.20
9265;DHT22;4669;49.594;10.958;2023-06-14T16:30:48;25.90;51.80
9265;DHT22;4669;49.594;10.958;2023-06-14T16:35:51;25.60;53.10
9265;DHT22;4669;49.594;10.958;2023-06-14T16:40:53;25.80;52.80
9265;DHT22;4669;49.594;10.958;2023-06-14T16:45:55;25.60;51.70
9265;DHT22;4669;49.594;10.958;2023-06-14T16:50:58;25.70;52.90
9265;DHT22;4669;49.594;10.958;2023-06-14T16:56:00;26.50;52.40
9265;DHT22;4669;49.594;10.958;2023-06-14T17:01:03;26.70;51.30
9265;DHT22;4669;49.594;10.958;2023-06-14T17:06:07;26.90;51.80
9265;DHT22;4669;49.594;10.958;2023-06-14T17:11:09;26.90;51.20
9265;DHT22;4669;49.594;10.958;2023-06-14T17:16:10;27.30;52.20
9265;DHT22;4669;49.594;10.958;2023-06-14T17:21:14;27.20;52.20
9265;DHT22;4669;49.594;10.958;2023-06-14T17:26:16;27.20;50.80
9265;DHT22;4669;49.594;10.958;2023-06-14T17:31:18;27.10;51.30
9265;DHT22;4669;49.594;10.958;2023-06-14T17:36:21;27.10;50.90
9265;DHT22;4669;49.594;10.958;2023-06-14T17:41:23;26.90;51.40
9265;DHT22;4669;49.594;10.958;2023-06-14T17:46:26;26.80;52.40
9265;DHT22;4669;49.594;10.958;2023-06-14T17:51:29;26.80;52.30
9265;DHT22;4669;49.594;10.958;2023-06-14T17:56:32;26.60;52.20
9265;DHT22;4669;49.594;10.958;2023-06-14T18:01:34;26.50;52.40
9265;DHT22;4669;49.594;10.958;2023-06-14T18:06:37;26.10;53.40
9265;DHT22;4669;49.594;10.958;2023-06-14T18:11:39;25.80;53.70
9265;DHT22;4669;49.594;10.958;2023-06-14T18:16:41;25.30;54.90
9265;DHT22;4669;49.594;10.958;2023-06-14T18:21:45;24.90;55.70
9265;DHT22;4669;49.594;10.958;2023-06-14T18:26:47;24.60;56.50
9265;DHT22;4669;49.594;10.958;2023-06-14T18:31:49;24.30;57.00
9265;DHT22;4669;49.594;10.958;2023-06-14T18:36:52;24.10;57.10
9265;DHT22;4669;49.594;10.958;2023-06-14T18:41:56;23.90;57.90
9265;DHT22;4669;49.594;10.958;2023-06-14T18:46:59;23.70;58.30
9265;DHT22;4669;49.594;10.958;2023-06-14T18:52:02;23.60;58.30
9265;DHT22;4669;49.594;10.958;2023-06-14T18:57:05;23.50;58.20
9265;DHT22;4669;49.594;10.958;2023-06-14T19:02:07;23.30;58.60
9265;DHT22;4669;49.594;10.958;2023-06-14T19:07:11;23.20;59.00
9265;DHT22;4669;49.594;10.958;2023-06-14T19:12:13;23.20;58.90
9265;DHT22;4669;49.594;10.958;2023-06-14T19:17:15;23.00;59.70
9265;DHT22;4669;49.594;10.958;2023-06-14T19:22:18;22.80;60.40
9265;DHT22;4669;49.594;10.958;2023-06-14T19:27:20;22.80;60.70
9265;DHT22;4669;49.594;10.958;2023-06-14T19:32:21;22.70;60.70
9265;DHT22;4669;49.594;10.958;2023-06-14T19:37:25;22.60;61.00
9265;DHT22;4669;49.594;10.958;2023-06-14T19:42:27;22.50;60.80
9265;DHT22;4669;49.594;10.958;2023-06-14T19:47:29;22.40;61.50
9265;DHT22;4669;49.594;10.958;2023-06-14T19:52:32;22.30;61.60
9265;DHT22;4669;49.594;10.958;2023-06-14T19:57:34;22.10;62.20
9265;DHT22;4669;49.594;10.958;2023-06-14T20:02:36;22.00;62.80
9265;DHT22;4669;49.594;10.958;2023-06-14T20:07:39;21.90;62.60
9265;DHT22;4669;49.594;10.958;2023-06-14T20:12:41;21.80;62.70
9265;DHT22;4669;49.594;10.958;2023-06-14T20:17:43;21.80;63.00
9265;DHT22;4669;49.594;10.958;2023-06-14T20:22:46;21.80;63.20
9265;DHT22;4669;49.594;10.958;2023-06-14T20:27:48;21.70;63.40
9265;DHT22;4669;49.594;10.958;2023-06-14T20:32:50;21.60;63.90
9265;DHT22;4669;49.594;10.958;2023-06-14T20:37:54;21.50;63.60
9265;DHT22;4669;49.594;10.958;2023-06-14T20:42:55;21.40;63.90
9265;DHT22;4669;49.594;10.958;2023-06-14T20:48:04;21.30;64.40
9265;DHT22;4669;49.594;10.958;2023-06-14T20:53:07;21.30;64.50
9265;DHT22;4669;49.594;10.958;2023-06-14T20:58:09;21.20;64.30
9265;DHT22;4669;49.594;10.958;2023-06-14T21:03:11;21.20;65.00
9265;DHT22;4669;49.594;10.958;2023-06-14T21:08:14;21.10;65.10
9265;DHT22;4669;49.594;10.958;2023-06-14T21:13:16;21.00;65.20
9265;DHT22;4669;49.594;10.958;2023-06-14T21:18:18;21.00;65.60
9265;DHT22;4669;49.594;10.958;2023-06-14T21:23:21;21.00;65.60
9265;DHT22;4669;49.594;10.958;2023-06-14T21:28:23;20.90;65.50
9265;DHT22;4669;49.594;10.958;2023-06-14T21:33:25;20.80;65.90
9265;DHT22;4669;49.594;10.958;2023-06-14T21:38:28;20.80;65.90
9265;DHT22;4669;49.594;10.958;2023-06-14T21:43:30;20.70;66.00
9265;DHT22;4669;49.594;10.958;2023-06-14T21:48:32;20.70;67.40
9265;DHT22;4669;49.594;10.958;2023-06-14T21:53:35;20.70;67.10
9265;DHT22;4669;49.594;10.958;2023-06-14T21:58:37;20.60;67.30
